Time;durP1;ratioP1;P1;durP2;ratioP2;P2;SDS_P1;SDS_P2;PMS_P1;PMS_P2;Temp;Humidity;BMP_temperature;BMP_pressure;BME280_temperature;BME280_humidity;BME280_pressure;Samples;Min_cycle;Max_cycle;Signal;HPM_P1;HPM_P2
2022/08/28 00:02:14;;;;;;;14.02;11.77;;;;;;;16.70;100.00;96224.25;5085837;28;20039;-76
2022/08/28 00:04:41;;;;;;;13.27;11.88;;;;;;;16.74;100.00;96222.03;5086121;28;20063;-76
2022/08/28 00:07:07;;;;;;;12.65;11.05;;;;;;;16.75;100.00;96225.53;5086918;28;20035;-76
2022/08/28 00:09:33;;;;;;;15.48;11.10;;;;;;;16.72;100.00;96222.22;5086669;28;20151;-76
2022/08/28 00:11:59;;;;;;;17.67;11.25;;;;;;;16.74;100.00;96227.34;5082469;28;20680;-76
2022/08/28 00:14:25;;;;;;;13.30;11.52;;;;;;;16.72;100.00;96230.19;5085380;28;20110;-76
2022/08/28 00:16:51;;;;;;;14.38;11.93;;;;;;;16.77;100.00;96226.13;5086250;28;20039;-76
2022/08/28 00:19:18;;;;;;;15.70;12.02;;;;;;;16.72;100.00;96224.03;5099956;28;20027;-76
2022/08/28 00:21:45;;;;;;;14.75;12.32;;;;;;;16.78;100.00;96227.78;5086969;28;20127;-76
2022/08/28 00:24:12;;;;;;;14.77;12.10;;;;;;;16.77;100.00;96228.78;5087152;28;20138;-75
2022/08/28 00:29:21;;;;;;;14.07;12.32;;;;;;;16.76;100.00;96227.16;5086102;28;20059;-76
2022/08/28 00:31:47;;;;;;;16.48;13.63;;;;;;;16.70;100.00;96226.09;5081660;28;20473;-77
2022/08/28 00:34:13;;;;;;;15.88;12.93;;;;;;;16.76;100.00;96232.47;5078028;28;20448;-76
2022/08/28 00:36:40;;;;;;;16.88;12.90;;;;;;;16.77;100.00;96228.78;5085771;28;20031;-76
2022/08/28 00:39:07;;;;;;;16.58;14.73;;;;;;;16.71;100.00;96227.72;5077351;28;20024;-77
2022/08/28 00:41:35;;;;;;;16.88;12.80;;;;;;;16.70;100.00;96229.56;5084654;28;20058;-76
2022/08/28 00:44:19;;;;;;;16.60;12.20;;;;;;;16.81;100.00;96224.75;5079592;28;20481;-76
2022/08/28 00:46:48;;;;;;;14.43;12.43;;;;;;;16.76;100.00;96229.81;5086595;28;20560;-77
2022/08/28 00:49:18;;;;;;;15.13;12.07;;;;;;;16.84;100.00;96232.31;5086636;28;20463;-77
2022/08/28 00:54:32;;;;;;;15.90;13.20;;;;;;;16.81;100.00;96230.06;5086096;28;20169;-77
2022/08/28 00:56:59;;;;;;;19.60;14.15;;;;;;;16.83;100.00;96220.03;5086146;28;20035;-76
2022/08/28 00:59:26;;;;;;;15.45;12.88;;;;;;;16.82;100.00;96221.06;5083465;28;20103;-76
2022/08/28 01:01:55;;;;;;;16.42;13.75;;;;;;;16.93;100.00;96231.94;5078987;28;20063;-76
2022/08/28 01:04:24;;;;;;;16.02;13.52;;;;;;;16.90;100.00;96221.72;5065424;28;20033;-76
2022/08/28 01:06:53;;;;;;;14.77;12.57;;;;;;;16.94;100.00;96216.81;5087226;28;20043;-76
2022/08/28 01:09:21;;;;;;;15.77;13.45;;;;;;;16.90;100.00;96212.91;5073475;28;20599;-76
2022/08/28 01:11:50;;;;;;;14.73;12.18;;;;;;;16.94;100.00;96216.81;5083289;28;20470;-76
2022/08/28 01:14:21;;;;;;;18.13;13.50;;;;;;;16.88;100.00;96205.16;5085749;28;20043;-76
2022/08/28 01:16:51;;;;;;;18.52;15.27;;;;;;;16.89;100.00;96212.09;5082362;28;20706;-76
2022/08/28 01:19:25;;;;;;;28.83;13.85;;;;;;;16.76;100.00;96203.25;5090176;28;20035;-76
2022/08/28 01:22:16;;;;;;;15.95;14.35;;;;;;;16.76;100.00;96216.53;5089134;28;20032;-76
2022/08/28 01:24:44;;;;;;;16.05;14.18;;;;;;;16.78;100.00;96207.34;5082140;28;20085;-76
2022/08/28 01:27:09;;;;;;;17.33;14.07;;;;;;;16.82;100.00;96213.09;5089735;28;20031;-76
2022/08/28 01:29:35;;;;;;;22.00;15.07;;;;;;;16.82;100.00;96211.25;5088144;28;20094;-77
2022/08/28 01:32:02;;;;;;;16.67;14.05;;;;;;;16.78;100.00;96214.50;5090216;28;20397;-76
2022/08/28 01:34:27;;;;;;;16.23;14.13;;;;;;;16.86;100.00;96209.81;5088605;28;20024;-76
2022/08/28 01:36:53;;;;;;;17.38;15.02;;;;;;;16.85;100.00;96199.41;5088229;28;20031;-77
2022/08/28 01:39:23;;;;;;;15.10;13.23;;;;;;;16.85;100.00;96208.19;5090184;28;20028;-76
2022/08/28 01:41:51;;;;;;;17.25;14.68;;;;;;;16.87;100.00;96221.28;5083742;28;20029;-77
2022/08/28 01:44:23;;;;;;;16.48;14.60;;;;;;;16.82;100.00;96221.06;5078457;28;20047;-76
2022/08/28 01:46:53;;;;;;;18.15;15.48;;;;;;;16.78;100.00;96222.47;5088075;28;20034;-76
2022/08/28 01:49:19;;;;;;;18.77;14.52;;;;;;;16.76;100.00;96221.84;5089692;28;20044;-76
2022/08/28 01:51:45;;;;;;;18.77;15.23;;;;;;;16.70;100.00;96221.59;5089850;28;20071;-76
2022/08/28 01:54:11;;;;;;;19.48;15.93;;;;;;;16.79;100.00;96221.44;5084558;28;20125;-76
2022/08/28 01:56:39;;;;;;;17.60;15.00;;;;;;;16.79;100.00;96229.41;5086936;28;20051;-76
2022/08/28 01:59:08;;;;;;;18.30;15.68;;;;;;;16.80;100.00;96228.41;5071667;28;20012;-76
2022/08/28 02:01:34;;;;;;;20.83;16.70;;;;;;;16.81;100.00;96235.38;5089578;28;20035;-76
2022/08/28 02:04:03;;;;;;;21.00;16.02;;;;;;;16.85;100.00;96226.78;5090702;28;20020;-77
2022/08/28 02:06:30;;;;;;;18.75;16.30;;;;;;;16.78;100.00;96227.78;5089648;28;20028;-76
2022/08/28 02:08:56;;;;;;;19.25;16.17;;;;;;;16.64;100.00;96233.00;5091403;28;20028;-76
2022/08/28 02:11:23;;;;;;;22.08;17.55;;;;;;;16.67;100.00;96231.81;5091669;28;20032;-77
2022/08/28 02:13:50;;;;;;;19.58;16.00;;;;;;;16.69;100.00;96227.91;5089550;28;20036;-76
2022/08/28 02:16:16;;;;;;;21.08;17.48;;;;;;;16.73;100.00;96223.03;5086689;28;20030;-76
2022/08/28 02:18:42;;;;;;;21.02;18.42;;;;;;;16.79;100.00;96224.09;5085934;28;20030;-76
2022/08/28 02:21:09;;;;;;;24.48;18.83;;;;;;;16.73;100.00;96221.22;5090151;28;20580;-76
2022/08/28 02:23:37;;;;;;;22.35;19.33;;;;;;;16.77;100.00;96229.63;5089711;28;20649;-76
2022/08/28 02:26:03;;;;;;;23.40;19.63;;;;;;;16.79;100.00;96218.78;5090127;28;20401;-76
2022/08/28 02:28:28;;;;;;;22.25;19.83;;;;;;;16.82;100.00;96216.56;5090360;28;20046;-76
2022/08/28 02:30:54;;;;;;;23.52;19.17;;;;;;;16.80;100.00;96220.44;5084975;28;20031;-76
2022/08/28 02:33:20;;;;;;;24.83;20.83;;;;;;;16.79;100.00;96224.91;5088905;28;20073;-76
2022/08/28 02:35:45;;;;;;;23.17;19.42;;;;;;;16.85;100.00;96220.66;5090942;28;20024;-76
2022/08/28 02:38:11;;;;;;;24.92;19.33;;;;;;;16.78;100.00;96220.63;5082486;28;20074;-76
2022/08/28 02:40:37;;;;;;;22.52;18.60;;;;;;;16.83;100.00;96212.06;5085907;28;20099;-76
2022/08/28 02:43:04;;;;;;;28.20;20.48;;;;;;;16.79;100.00;96218.78;5089101;28;20031;-76
2022/08/28 02:45:30;;;;;;;23.73;20.00;;;;;;;16.77;100.00;96220.81;5087870;28;20039;-76
2022/08/28 02:47:55;;;;;;;27.58;21.27;;;;;;;16.79;100.00;96218.78;5089430;28;20086;-76
2022/08/28 02:50:22;;;;;;;26.58;20.40;;;;;;;16.79;100.00;96213.47;5087083;28;20032;-76
2022/08/28 02:52:49;;;;;;;23.73;19.10;;;;;;;16.84;100.00;96221.69;5090709;28;20104;-76
2022/08/28 02:55:17;;;;;;;27.55;20.10;;;;;;;16.86;100.00;96217.78;5086672;28;20398;-76
2022/08/28 02:57:44;;;;;;;23.27;19.67;;;;;;;16.87;100.00;96214.13;5083427;28;20114;-76
2022/08/28 03:00:13;;;;;;;23.73;19.00;;;;;;;16.94;100.00;96219.47;5090903;28;20034;-76
2022/08/28 03:02:40;;;;;;;22.42;18.90;;;;;;;16.90;100.00;96218.22;5086141;28;20040;-76
2022/08/28 03:05:07;;;;;;;25.25;19.75;;;;;;;16.89;100.00;96221.91;5088526;28;20047;-76
2022/08/28 03:07:33;;;;;;;23.02;19.38;;;;;;;16.82;100.00;96221.06;5087078;28;20042;-75
2022/08/28 03:09:58;;;;;;;22.23;19.40;;;;;;;16.91;100.00;96225.19;5087541;28;20024;-76
2022/08/28 03:12:24;;;;;;;25.70;19.58;;;;;;;16.84;100.00;96222.50;5085752;28;20037;-76
2022/08/28 03:14:51;;;;;;;27.15;19.73;;;;;;;16.91;100.00;96219.88;5086682;28;20032;-76
2022/08/28 03:17:17;;;;;;;27.38;20.70;;;;;;;16.84;100.00;96213.72;5086569;28;20028;-76
2022/08/28 03:19:43;;;;;;;26.83;20.80;;;;;;;16.85;100.00;96220.66;5088226;28;20030;-76
2022/08/28 03:22:10;;;;;;;28.75;21.02;;;;;;;16.86;100.00;96224.94;5084095;28;20052;-76
2022/08/28 03:24:36;;;;;;;26.55;19.85;;;;;;;16.80;100.00;96225.72;5085739;28;20108;-76
2022/08/28 03:27:03;;;;;;;22.48;19.77;;;;;;;16.85;100.00;96223.31;5086904;28;20028;-76
2022/08/28 03:29:30;;;;;;;26.25;19.90;;;;;;;16.77;100.00;96223.47;5087252;28;20042;-76
2022/08/28 03:31:56;;;;;;;25.05;20.23;;;;;;;16.72;100.00;96219.56;5063595;28;20493;-76
2022/08/28 03:34:22;;;;;;;23.63;20.35;;;;;;;16.81;100.00;96222.09;5078331;28;20614;-76
2022/08/28 03:36:48;;;;;;;24.40;20.92;;;;;;;16.80;100.00;96223.09;5085830;28;20456;-76
2022/08/28 03:39:14;;;;;;;25.95;20.95;;;;;;;16.78;100.00;96228.59;5087965;28;20035;-76
2022/08/28 03:41:39;;;;;;;26.05;20.52;;;;;;;16.78;100.00;96233.09;5087399;28;20024;-76
2022/08/28 03:44:06;;;;;;;23.05;20.45;;;;;;;16.76;100.00;96227.97;5085312;28;20036;-76
2022/08/28 03:46:33;;;;;;;24.63;20.33;;;;;;;16.72;100.00;96229.34;5087083;28;20043;-76
2022/08/28 03:49:01;;;;;;;25.38;20.30;;;;;;;16.68;100.00;96228.94;5086507;28;20066;-76
2022/08/28 03:51:30;;;;;;;27.98;21.42;;;;;;;16.69;100.00;96235.06;5087588;28;20032;-76
2022/08/28 03:53:57;;;;;;;23.92;19.80;;;;;;;16.75;100.00;96233.50;5077851;28;20035;-76
2022/08/28 03:56:25;;;;;;;27.10;20.20;;;;;;;16.67;100.00;96232.63;5089256;28;20034;-75
2022/08/28 03:58:54;;;;;;;26.10;20.90;;;;;;;16.75;100.00;96241.47;5080210;28;20110;-76
2022/08/28 04:01:20;;;;;;;25.38;20.45;;;;;;;16.69;100.00;96241.19;5084478;28;20591;-76
2022/08/28 04:03:46;;;;;;;23.83;19.73;;;;;;;16.75;100.00;96236.16;5078020;28;20433;-76
2022/08/28 04:06:12;;;;;;;23.35;19.58;;;;;;;16.77;100.00;96231.44;5084596;28;20034;-76
2022/08/28 04:08:39;;;;;;;27.92;19.83;;;;;;;16.80;100.00;96236.34;5087213;28;20063;-76
2022/08/28 04:11:04;;;;;;;30.73;20.75;;;;;;;16.81;100.00;96232.72;5084670;28;20024;-75
2022/08/28 04:13:30;;;;;;;26.23;19.88;;;;;;;16.77;100.00;96232.28;5087099;28;20081;-76
2022/08/28 04:16:09;;;;;;;21.50;18.42;;;;;;;16.77;100.00;96244.72;5085263;28;20122;-76
2022/08/28 04:18:36;;;;;;;25.67;20.48;;;;;;;16.78;100.00;96243.72;5085157;28;20028;-76
2022/08/28 04:21:06;;;;;;;24.33;21.40;;;;;;;16.72;100.00;96247.94;5087160;28;20090;-76
2022/08/28 04:23:33;;;;;;;28.58;20.27;;;;;;;16.69;100.00;96245.69;5086197;28;20036;-76
2022/08/28 04:25:59;;;;;;;25.10;19.80;;;;;;;16.74;100.00;96243.28;5086567;28;20012;-77
2022/08/28 04:28:25;;;;;;;22.38;19.90;;;;;;;16.77;100.00;96244.72;5087586;28;20061;-76
2022/08/28 04:30:55;;;;;;;22.90;18.90;;;;;;;16.79;100.00;96251.47;5084150;28;20032;-77
2022/08/28 04:33:23;;;;;;;26.00;21.33;;;;;;;16.76;100.00;96248.41;5063316;28;20024;-77
2022/08/28 04:35:49;;;;;;;27.40;20.90;;;;;;;16.76;100.00;96243.09;5066312;28;20108;-76
2022/08/28 04:38:15;;;;;;;24.17;19.90;;;;;;;16.81;100.00;96241.50;5085663;28;20073;-76
2022/08/28 04:40:42;;;;;;;32.60;21.77;;;;;;;16.83;100.00;96242.09;5085873;28;20820;-76
2022/08/28 04:43:08;;;;;;;24.55;20.05;;;;;;;16.78;100.00;96243.72;5089678;28;20038;-76
2022/08/28 04:45:42;;;;;;;27.17;19.60;;;;;;;16.81;100.00;96246.00;5089368;28;20043;-76
2022/08/28 04:48:09;;;;;;;25.90;20.77;;;;;;;16.79;100.00;96246.16;5089893;28;20035;-75
2022/08/28 04:50:39;;;;;;;25.80;20.33;;;;;;;16.72;100.00;96251.41;5090052;28;20604;-76
2022/08/28 04:53:06;;;;;;;25.33;19.83;;;;;;;16.74;100.00;96251.25;5089677;28;20505;-76
2022/08/28 04:55:31;;;;;;;27.33;20.55;;;;;;;16.73;100.00;96255.72;5083206;28;20032;-75
2022/08/28 04:57:57;;;;;;;28.30;19.70;;;;;;;16.78;100.00;96257.00;5090884;28;20558;-76
2022/08/28 05:00:23;;;;;;;23.58;19.75;;;;;;;16.78;100.00;96255.16;5092573;28;20553;-76
2022/08/28 05:02:49;;;;;;;23.80;20.48;;;;;;;16.80;100.00;96258.44;5092941;28;20055;-75
2022/08/28 05:05:15;;;;;;;21.30;18.25;;;;;;;16.80;100.00;96250.50;5088445;28;20036;-76
2022/08/28 05:07:40;;;;;;;25.88;19.52;;;;;;;16.83;100.00;96249.25;5071666;28;20020;-76
2022/08/28 05:10:06;;;;;;;26.85;20.67;;;;;;;16.77;100.00;96252.69;5089362;28;20061;-76
2022/08/28 05:12:35;;;;;;;23.23;20.55;;;;;;;16.76;100.00;96243.91;5089422;28;20067;-76
2022/08/28 05:15:01;;;;;;;25.00;20.83;;;;;;;16.73;100.00;96249.56;5069126;28;20040;-76
2022/08/28 05:17:27;;;;;;;24.38;20.58;;;;;;;16.75;100.00;96252.91;5086544;28;20039;-76
2022/08/28 05:19:53;;;;;;;28.30;20.75;;;;;;;16.76;100.00;96249.22;5088664;28;20031;-76
2022/08/28 05:22:18;;;;;;;30.63;22.58;;;;;;;16.72;100.00;96251.41;5085616;28;20081;-76
2022/08/28 05:24:44;;;;;;;26.25;21.90;;;;;;;16.72;100.00;96255.91;5082567;28;21163;-77
2022/08/28 05:27:10;;;;;;;26.15;20.83;;;;;;;16.64;100.00;96258.75;5089691;28;20035;-76
2022/08/28 05:29:35;;;;;;;28.60;21.75;;;;;;;16.64;100.00;96261.41;5090157;28;20477;-77
2022/08/28 05:32:02;;;;;;;28.50;21.23;;;;;;;16.67;100.00;96268.97;5088871;28;20613;-76
2022/08/28 05:34:27;;;;;;;27.67;21.63;;;;;;;16.73;100.00;96262.84;5088076;28;20027;-76
2022/08/28 05:36:53;;;;;;;22.55;19.42;;;;;;;16.78;100.00;96259.66;5083235;28;20093;-76
2022/08/28 05:39:19;;;;;;;27.92;21.10;;;;;;;16.70;100.00;96264.09;5080467;28;20040;-76
2022/08/28 05:41:46;;;;;;;27.15;20.80;;;;;;;16.69;100.00;96266.94;5080868;28;20161;-77
2022/08/28 05:44:15;;;;;;;26.27;21.48;;;;;;;16.76;100.00;96265.16;5089753;28;20032;-76
2022/08/28 05:46:42;;;;;;;24.73;21.10;;;;;;;16.68;100.00;96262.63;5088408;28;20481;-76
2022/08/28 05:49:09;;;;;;;26.25;22.00;;;;;;;16.80;100.00;96271.72;5090392;28;20427;-76
2022/08/28 05:51:35;;;;;;;28.50;21.15;;;;;;;16.91;100.00;96265.03;5080848;28;20689;-76
2022/08/28 05:54:02;;;;;;;27.55;20.65;;;;;;;16.90;100.00;96276.66;5089835;28;20031;-76
2022/08/28 05:56:32;;;;;;;25.90;21.52;;;;;;;16.93;100.00;96274.44;5086520;28;20032;-76
2022/08/28 05:59:00;;;;;;;27.20;21.65;;;;;;;17.05;100.00;96279.19;5083830;28;20051;-77
2022/08/28 06:01:31;;;;;;;24.25;20.33;;;;;;;17.12;100.00;96272.06;5089742;28;20028;-76
2022/08/28 06:03:58;;;;;;;24.75;21.70;;;;;;;17.06;100.00;96276.31;5088730;28;20028;-76
2022/08/28 06:06:26;;;;;;;30.40;21.85;;;;;;;17.10;100.00;96274.91;5080152;28;20023;-76
2022/08/28 06:09:05;;;;;;;25.88;20.73;;;;;;;17.19;100.00;96279.03;5082424;28;20393;-76
2022/08/28 06:11:31;;;;;;;28.20;21.63;;;;;;;17.16;100.00;96281.25;5088305;28;20035;-76
2022/08/28 06:14:02;;;;;;;26.48;20.83;;;;;;;17.06;100.00;96273.66;5089466;28;20020;-77
2022/08/28 06:16:29;;;;;;;24.90;20.98;;;;;;;17.10;100.00;96280.25;5085386;28;20386;-76
2022/08/28 06:18:56;;;;;;;27.35;20.80;;;;;;;17.17;100.00;96272.28;5088243;28;20036;-76
2022/08/28 06:21:23;;;;;;;25.40;21.40;;;;;;;17.05;100.00;96280.00;5089794;28;20027;-76
2022/08/28 06:23:49;;;;;;;27.27;21.35;;;;;;;17.12;100.00;96280.84;5084402;28;20124;-77
2022/08/28 06:26:15;;;;;;;25.33;20.27;;;;;;;17.05;100.00;96285.31;5077083;28;20041;-76
2022/08/28 06:28:40;;;;;;;24.80;19.90;;;;;;;17.11;100.00;96283.72;5087116;28;20039;-76
2022/08/28 06:31:06;;;;;;;26.15;21.27;;;;;;;17.04;100.00;96281.03;5067317;28;20032;-76
2022/08/28 06:33:32;;;;;;;28.83;21.48;;;;;;;16.95;100.00;96290.19;5089157;28;20496;-77
2022/08/28 06:35:58;;;;;;;26.80;20.35;;;;;;;16.92;100.00;96285.25;5087485;28;20036;-77
2022/08/28 06:38:25;;;;;;;27.80;21.20;;;;;;;17.04;100.00;96283.69;5089340;28;20500;-76
2022/08/28 06:40:54;;;;;;;25.30;21.02;;;;;;;17.10;100.00;96285.56;5087896;28;20031;-77
2022/08/28 06:43:23;;;;;;;30.80;21.33;;;;;;;17.14;100.00;96289.44;5080493;28;20500;-77
2022/08/28 06:45:53;;;;;;;25.75;20.17;;;;;;;17.18;100.00;96290.69;5080454;28;20109;-76
2022/08/28 06:48:21;;;;;;;28.75;23.50;;;;;;;17.02;100.00;96290.22;5078914;28;20133;-77
2022/08/28 06:50:49;;;;;;;26.80;21.10;;;;;;;17.18;100.00;96292.53;5087788;28;20032;-77
2022/08/28 06:53:16;;;;;;;26.70;21.15;;;;;;;17.29;100.00;96291.94;5080124;28;20024;-76
2022/08/28 06:55:42;;;;;;;29.15;22.63;;;;;;;17.15;100.00;96299.03;5081414;28;20028;-77
2022/08/28 06:58:09;;;;;;;25.70;21.88;;;;;;;17.11;100.00;96297.00;5090036;28;20523;-76
2022/08/28 07:00:35;;;;;;;27.52;21.45;;;;;;;17.19;100.00;96302.94;5088649;28;20038;-77
2022/08/28 07:03:04;;;;;;;27.35;21.73;;;;;;;17.15;100.00;96309.69;5087213;28;20036;-76
2022/08/28 07:05:31;;;;;;;24.63;20.73;;;;;;;17.37;100.00;96306.88;5086127;28;20063;-76
2022/08/28 07:07:57;;;;;;;24.15;18.33;;;;;;;17.35;100.00;96293.81;5095803;28;20031;-77
2022/08/28 07:10:23;;;;;;;29.50;20.60;;;;;;;17.38;100.00;96298.72;5095257;28;20020;-76
2022/08/28 07:12:49;;;;;;;23.10;19.83;;;;;;;17.47;100.00;96299.38;5087181;28;20036;-76
2022/08/28 07:15:17;;;;;;;24.67;20.25;;;;;;;17.39;100.00;96299.53;5078867;28;20091;-77
2022/08/28 07:17:43;;;;;;;26.52;19.60;;;;;;;17.58;100.00;96300.63;5086089;28;20098;-76
2022/08/28 07:20:10;;;;;;;25.88;19.77;;;;;;;17.67;100.00;96296.72;5086982;28;20024;-76
2022/08/28 07:22:39;;;;;;;23.65;19.30;;;;;;;17.84;100.00;96302.50;5086802;28;20032;-77
2022/08/28 07:25:06;;;;;;;24.77;19.98;;;;;;;17.76;100.00;96303.53;5087941;28;20036;-77
2022/08/28 07:27:32;;;;;;;24.95;19.05;;;;;;;17.75;100.00;96301.06;5083064;28;20040;-76
2022/08/28 07:29:58;;;;;;;24.15;19.45;;;;;;;17.64;100.00;96305.13;5087450;28;20036;-76
2022/08/28 07:32:24;;;;;;;23.42;18.42;;;;;;;17.72;100.00;96301.44;5088072;28;20023;-77
2022/08/28 07:34:50;;;;;;;24.73;20.17;;;;;;;17.71;100.00;96305.97;5079662;28;20481;-76
2022/08/28 07:37:16;;;;;;;23.00;17.73;;;;;;;17.57;100.00;96307.78;5086434;28;20505;-76
2022/08/28 07:39:43;;;;;;;25.55;18.30;;;;;;;17.60;100.00;96303.88;5087772;28;20142;-76
2022/08/28 07:42:09;;;;;;;20.63;17.00;;;;;;;17.63;100.00;96296.31;5087599;28;20031;-77
2022/08/28 07:44:49;;;;;;;19.90;15.60;;;;;;;17.86;100.00;96301.28;5078015;28;20039;-76
2022/08/28 07:47:17;;;;;;;22.90;17.35;;;;;;;17.85;100.00;96309.47;5085471;28;20035;-77
2022/08/28 07:49:43;;;;;;;24.83;16.83;;;;;;;17.98;100.00;96306.84;5087323;28;20028;-77
2022/08/28 07:52:10;;;;;;;23.88;18.00;;;;;;;17.85;100.00;96301.50;5086513;28;20427;-77
2022/08/28 07:54:39;;;;;;;19.88;16.25;;;;;;;18.06;100.00;96313.78;5086519;28;20024;-76
2022/08/28 07:57:07;;;;;;;20.70;18.00;;;;;;;18.16;100.00;96310.72;5083768;28;20039;-76
2022/08/28 07:59:33;;;;;;;20.63;15.90;;;;;;;18.19;100.00;96319.13;5086179;28;20482;-77
2022/08/28 08:01:58;;;;;;;24.98;18.08;;;;;;;18.19;100.00;96320.97;5086251;28;20053;-76
2022/08/28 08:04:24;;;;;;;22.75;17.58;;;;;;;18.21;100.00;96321.56;5086133;28;20023;-76
2022/08/28 08:06:54;;;;;;;24.20;16.63;;;;;;;18.13;100.00;96320.75;5086265;28;20039;-76
2022/08/28 08:09:20;;;;;;;22.42;16.48;;;;;;;18.32;100.00;96323.63;5081347;28;20103;-78
2022/08/28 08:11:47;;;;;;;18.33;15.63;;;;;;;18.67;100.00;96315.38;5084828;28;20088;-76
2022/08/28 08:14:14;;;;;;;23.02;16.50;;;;;;;18.83;100.00;96320.31;5085356;28;21381;-77
2022/08/28 08:16:42;;;;;;;20.05;15.50;;;;;;;18.86;100.00;96314.56;5082705;28;20032;-76
2022/08/28 08:19:12;;;;;;;17.80;15.75;;;;;;;19.33;100.00;96307.22;5083793;28;20501;-76
2022/08/28 08:21:40;;;;;;;19.30;15.25;;;;;;;19.22;100.00;96318.56;5075134;28;20505;-76
2022/08/28 08:24:06;;;;;;;19.02;14.88;;;;;;;19.14;100.00;96322.25;5080889;28;20725;-76
2022/08/28 08:26:33;;;;;;;19.33;14.10;;;;;;;19.16;100.00;96316.72;5079063;28;20493;-76
2022/08/28 08:28:59;;;;;;;18.40;15.15;;;;;;;19.40;100.00;96323.19;5082939;28;20039;-77
2022/08/28 08:31:28;;;;;;;22.60;15.57;;;;;;;19.29;100.00;96324.66;5087155;28;20059;-77
2022/08/28 08:33:57;;;;;;;19.63;14.68;;;;;;;19.57;100.00;96326.16;5084613;28;20031;-76
2022/08/28 08:36:25;;;;;;;17.92;15.05;;;;;;;19.58;100.00;96317.94;5079214;28;20028;-76
2022/08/28 08:38:52;;;;;;;18.65;13.88;;;;;;;19.57;100.00;96321.66;5087122;28;20104;-76
2022/08/28 08:41:46;;;;;;;16.85;13.25;;;;;;;20.17;100.00;96322.09;5078757;28;20394;-77
2022/08/28 08:44:28;;;;;;;15.77;12.60;;;;;;;20.49;100.00;96320.22;5082685;28;20035;-76
2022/08/28 08:47:21;;;;;;;22.30;13.63;;;;;;;20.34;100.00;96319.72;5079540;28;20028;-76
2022/08/28 08:50:06;;;;;;;17.00;12.52;;;;;;;20.06;100.00;96332.69;5085307;28;20031;-76
2022/08/28 08:53:02;;;;;;;17.50;13.73;;;;;;;20.37;100.00;96326.47;5083114;28;20039;-77
2022/08/28 08:55:33;;;;;;;16.15;13.48;;;;;;;20.36;100.00;96324.84;5081626;28;20031;-77
2022/08/28 08:58:08;;;;;;;17.67;13.20;;;;;;;20.48;100.00;96329.22;5079924;28;20929;-77
2022/08/28 09:00:49;;;;;;;16.05;12.90;;;;;;;20.55;100.00;96328.41;5081433;28;20146;-78
2022/08/28 09:03:24;;;;;;;15.48;12.38;;;;;;;20.87;100.00;96327.25;5084820;28;20059;-76
2022/08/28 09:05:56;;;;;;;17.92;12.77;;;;;;;20.91;100.00;96332.97;5095009;28;20028;-78
2022/08/28 09:08:33;;;;;;;16.27;13.75;;;;;;;20.71;100.00;96335.84;5078603;28;20177;-77
2022/08/28 09:11:20;;;;;;;15.20;12.15;;;;;;;20.53;100.00;96331.28;5082057;28;20031;-77
2022/08/28 09:14:04;;;;;;;14.25;11.32;;;;;;;20.43;100.00;96337.09;5082667;28;20032;-76
2022/08/28 09:16:35;;;;;;;17.48;12.27;;;;;;;20.56;100.00;96330.06;5079264;28;20089;-77
2022/08/28 09:19:02;;;;;;;16.58;11.38;;;;;;;20.45;100.00;96329.66;5080644;28;20443;-78
2022/08/28 09:21:31;;;;;;;14.82;11.02;;;;;;;20.93;100.00;96331.72;5066907;28;20040;-77
2022/08/28 09:24:03;;;;;;;17.73;11.27;;;;;;;21.17;100.00;96331.88;5082412;28;20040;-77
2022/08/28 09:26:29;;;;;;;14.15;9.95;;;;;;;22.81;100.00;96324.34;5083033;28;20110;-77
2022/08/28 09:29:12;;;;;;;12.15;8.82;;;;;;;23.33;100.00;96314.72;5088584;28;20396;-76
2022/08/28 09:31:43;;;;;;;13.23;8.88;;;;;;;24.12;100.00;96310.31;5082445;28;20620;-77
2022/08/28 09:34:31;;;;;;;11.98;9.13;;;;;;;24.03;100.00;96311.75;5088610;28;20028;-77
2022/08/28 09:36:59;;;;;;;11.60;8.52;;;;;;;22.70;100.00;96327.00;5083611;28;20093;-77
2022/08/28 09:39:30;;;;;;;11.27;7.97;;;;;;;22.73;100.00;96313.94;5085428;28;20595;-77
2022/08/28 09:45:15;;;;;;;10.48;8.13;;;;;;;25.07;100.00;96313.91;5089012;28;20496;-76
2022/08/28 09:47:47;;;;;;;9.63;7.40;;;;;;;24.75;100.00;96308.38;5088058;28;20040;-77
2022/08/28 09:50:26;;;;;;;10.43;8.23;;;;;;;24.64;100.00;96312.75;5081758;28;20043;-77
2022/08/28 09:52:54;;;;;;;10.82;7.32;;;;;;;25.17;100.00;96311.38;5083103;28;20047;-77
2022/08/28 09:55:29;;;;;;;9.05;6.65;;;;;;;25.17;100.00;96315.94;5086099;28;20407;-77
2022/08/28 09:57:55;;;;;;;10.18;6.30;;;;;;;25.78;100.00;96313.16;5087535;28;20077;-77
2022/08/28 10:00:21;;;;;;;9.25;6.75;;;;;;;25.60;100.00;96309.72;5084562;28;20109;-77
2022/08/28 10:03:13;;;;;;;9.05;6.72;;;;;;;25.71;100.00;96307.16;5090688;28;20028;-77
2022/08/28 10:06:02;;;;;;;9.38;5.70;;;;;;;25.69;100.00;96306.56;5088872;28;20107;-77
2022/08/28 10:08:39;;;;;;;9.82;6.75;;;;;;;25.89;99.10;96312.22;5081494;28;20068;-77
2022/08/28 10:11:29;;;;;;;10.32;7.05;;;;;;;25.44;99.49;96320.59;5085355;28;20027;-78
2022/08/28 10:14:19;;;;;;;9.23;6.53;;;;;;;26.15;98.03;96315.94;5084558;28;20046;-77
2022/08/28 10:17:03;;;;;;;10.45;6.38;;;;;;;25.80;96.91;96309.16;5087481;28;20081;-77
2022/08/28 10:19:29;;;;;;;11.93;5.82;;;;;;;27.11;92.17;96312.34;5086614;28;20397;-76
2022/08/28 10:22:13;;;;;;;8.75;6.00;;;;;;;25.99;99.02;96312.31;5084569;28;20036;-77
2022/08/28 10:24:57;;;;;;;8.65;6.07;;;;;;;24.85;100.00;96313.09;5084388;28;20032;-77
2022/08/28 10:27:47;;;;;;;9.25;5.72;;;;;;;24.69;100.00;96310.16;5082567;28;20035;-76
2022/08/28 10:30:22;;;;;;;11.45;5.45;;;;;;;24.75;99.38;96311.06;5077631;28;20028;-77
2022/08/28 10:33:07;;;;;;;7.57;5.32;;;;;;;25.09;100.00;96309.09;5085765;28;20028;-78
2022/08/28 10:35:36;;;;;;;9.38;5.20;;;;;;;24.72;100.00;96308.06;5083763;28;20032;-76
2022/08/28 10:38:12;;;;;;;9.52;5.28;;;;;;;24.58;100.00;96313.78;5101347;28;20093;-76
2022/08/28 10:41:02;;;;;;;8.80;4.70;;;;;;;24.62;99.34;96308.72;5083831;28;20078;-75
2022/08/28 10:43:43;;;;;;;8.43;5.10;;;;;;;24.30;100.00;96309.25;5060491;28;20024;-76
2022/08/28 10:46:33;;;;;;;9.30;5.45;;;;;;;25.02;100.00;96313.84;5083063;28;20084;-76
2022/08/28 10:49:11;;;;;;;8.65;5.43;;;;;;;24.25;100.00;96314.56;5079981;28;20787;-76
2022/08/28 10:51:47;;;;;;;14.77;12.30;;;;;;;24.54;100.00;96311.78;5084135;28;20024;-76
2022/08/28 10:54:26;;;;;;;15.50;12.55;;;;;;;24.61;100.00;96312.44;5085645;28;20039;-77
2022/08/28 10:57:21;;;;;;;10.20;7.57;;;;;;;24.77;100.00;96321.56;5085830;28;20042;-76
2022/08/28 10:59:50;;;;;;;10.48;6.78;;;;;;;24.80;100.00;96313.81;5082624;28;20035;-76
2022/08/28 11:02:21;;;;;;;10.23;8.63;;;;;;;25.90;100.00;96318.44;5081410;28;20512;-76
2022/08/28 11:04:48;;;;;;;11.20;7.38;;;;;;;25.46;100.00;96313.06;5085427;28;20057;-76
2022/08/28 11:07:25;;;;;;;11.65;7.40;;;;;;;25.69;100.00;96318.19;5085202;28;20058;-75
2022/08/28 11:09:51;;;;;;;9.73;7.32;;;;;;;26.22;100.00;96315.75;5079328;28;20895;-76
2022/08/28 11:12:18;;;;;;;11.00;7.32;;;;;;;25.87;100.00;96314.34;5084319;28;20036;-76
2022/08/28 11:14:49;;;;;;;8.57;6.90;;;;;;;25.61;100.00;96324.81;5086238;28;20027;-75
2022/08/28 11:17:21;;;;;;;8.43;6.10;;;;;;;25.30;100.00;96320.16;5086455;28;20034;-76
2022/08/28 11:19:50;;;;;;;10.23;6.97;;;;;;;25.05;100.00;96320.59;5085584;28;20023;-76
2022/08/28 11:22:23;;;;;;;8.23;6.20;;;;;;;24.92;100.00;96319.91;5063493;28;20036;-76
2022/08/28 11:25:10;;;;;;;9.40;7.30;;;;;;;24.77;100.00;96321.56;5084245;28;20482;-78
2022/08/28 11:27:37;;;;;;;11.50;6.22;;;;;;;23.89;100.00;96321.19;5085583;28;20032;-76
2022/08/28 11:30:09;;;;;;;10.40;7.05;;;;;;;23.83;100.00;96322.94;5081666;28;20032;-75
2022/08/28 11:32:50;;;;;;;9.30;6.70;;;;;;;23.92;100.00;96328.75;5066718;28;21501;-75